Yakima Air Terminal McAllister Field
KYKM : now visible

Airfield :











YOU CAN JOIN US ON...

 
LOGIN :

Register | Disclaimer

   EN    FR    IT 

 









Legend :    VFR   Marginal VFR   IFR   Intensive IFR   Very Intensive IFR
Visi :
Ceiling :
>= 8 km
>= 3000ft
5 to 8 km
1000 to 3000 ft
1500m to 5 km
500 to 1000 ft
800 to 1500m
200 to 500 ft
< 800m
< 200 ft
Symbols :   Thunderstorms  Fog  Heavy snow  Heavy precipitations  Wind > 20 kt






- Airport Elevation : 1099 ft
- IATA code : YKM


KYKM - Yakima Air Terminal McAllister Field

CURRENT METAR :
  • 250453Z 25004KT 10SM CLR 18/08 A2991 RMK AO2 SLP125 T01830078

EXPIRED METARs :
  • 250353Z 06004KT 10SM CLR 24/06 A2989 RMK AO2 SLP115 T02440061
  • 250253Z 13003KT 10SM CLR 27/07 A2988 RMK AO2 SLP112 T02720067 56006
  • 250153Z 09003KT 10SM CLR 28/06 A2988 RMK AO2 SLP114 T02830061
  • 250053Z 00000KT 10SM CLR 28/06 A2989 RMK AO2 SLP116 T02780056

TAF KYKM
Valid from the 25 at 00:00 until the 26 at 00:00 UTC


242320Z 2500/2524 30005KT P6SM SKC
KZSE FIR / North America



MET'MAP, your aeronautical weather chart ! - Copyright ORBIFLY December 2007 - Disclaimer

ORBIFLY MET'MAP TEAM :

Programming & Development : Alexandra Zaïnal
Original concept : Baudouin d'Aumeries
Technical & hardware support : Manuel Goepfert
Assistance : Marc-Olivier Méhu




SOURCES & CREDITS :

   NOAA       Earth
Advisory